Time;durP1;ratioP1;P1;durP2;ratioP2;P2;SDS_P1;SDS_P2;PMS_P1;PMS_P2;Temp;Humidity;BMP_temperature;BMP_pressure;BME280_temperature;BME280_humidity;BME280_pressure;Samples;Min_cycle;Max_cycle;Signal;HPM_P1;HPM_P2
2021/03/07 00:00:51;;;;;;;15.43;7.73;;;;;;;1.06;56.35;100077.03;123694;1102;64873;-78
2021/03/07 00:03:19;;;;;;;16.83;7.43;;;;;;;1.07;57.31;100070.87;123708;1102;64963;-77
2021/03/07 00:05:45;;;;;;;16.20;8.73;;;;;;;1.08;56.89;100067.34;123431;1102;64905;-78
2021/03/07 00:08:12;;;;;;;17.75;8.60;;;;;;;1.09;57.00;100063.84;123756;1102;64956;-78
2021/03/07 00:10:39;;;;;;;16.77;7.83;;;;;;;1.11;56.52;100067.30;123781;1102;65354;-75
2021/03/07 00:13:07;;;;;;;17.03;8.80;;;;;;;1.11;56.56;100064.67;123738;1102;64953;-77
2021/03/07 00:15:39;;;;;;;18.80;8.67;;;;;;;1.11;57.23;100067.30;123821;1102;65035;-79
2021/03/07 00:18:06;;;;;;;17.95;9.45;;;;;;;1.14;57.22;100061.97;123865;1102;64943;-78
2021/03/07 00:20:32;;;;;;;23.20;9.97;;;;;;;1.13;57.39;100052.35;123862;1102;64897;-78
2021/03/07 00:22:59;;;;;;;19.23;8.33;;;;;;;1.13;56.87;100047.09;123820;1102;65318;-76
2021/03/07 00:25:25;;;;;;;19.37;10.13;;;;;;;1.12;56.91;100040.09;123737;1102;65000;-77
2021/03/07 00:27:52;;;;;;;20.93;9.23;;;;;;;1.13;57.33;100030.44;123771;1102;65403;-78
2021/03/07 00:30:19;;;;;;;19.13;9.97;;;;;;;1.14;57.56;100029.54;123778;1102;64941;-78
2021/03/07 00:32:45;;;;;;;18.50;9.73;;;;;;;1.14;57.94;100022.52;123746;1102;64930;-80
2021/03/07 00:35:13;;;;;;;20.15;10.05;;;;;;;1.14;57.15;100019.02;123839;1102;65001;-75
2021/03/07 00:37:40;;;;;;;16.10;8.80;;;;;;;1.14;57.51;100019.87;123799;1102;64905;-78
2021/03/07 00:40:08;;;;;;;15.75;8.90;;;;;;;1.15;57.66;100011.12;123840;1102;66414;-78
2021/03/07 00:42:35;;;;;;;21.83;9.90;;;;;;;1.16;57.76;100015.48;123789;1102;65352;-78
2021/03/07 00:45:05;;;;;;;17.10;9.45;;;;;;;1.17;57.96;100009.31;123834;1102;64921;-78
2021/03/07 00:47:32;;;;;;;23.57;8.97;;;;;;;1.18;57.52;100005.78;123780;1102;64941;-77
2021/03/07 00:49:58;;;;;;;16.30;8.83;;;;;;;1.19;57.08;100011.91;123457;1102;64904;-77
2021/03/07 00:52:24;;;;;;;18.27;9.33;;;;;;;1.18;57.85;100003.16;123831;1102;64898;-77
2021/03/07 00:54:51;;;;;;;20.40;9.00;;;;;;;1.19;57.59;100004.88;123779;1102;64966;-78
2021/03/07 00:57:17;;;;;;;19.47;9.20;;;;;;;1.19;58.03;100002.25;123519;1102;65052;-80
2021/03/07 00:59:44;;;;;;;17.97;9.70;;;;;;;1.20;58.29;100000.48;123452;1102;65013;-76
2021/03/07 01:02:10;;;;;;;19.13;9.93;;;;;;;1.20;57.36;99997.86;123508;1102;64898;-80
2021/03/07 01:04:36;;;;;;;14.00;8.43;;;;;;;1.21;57.47;99992.59;123803;1102;64985;-77
2021/03/07 01:07:03;;;;;;;17.32;8.83;;;;;;;1.21;58.75;99989.95;123773;1102;65033;-78
2021/03/07 01:09:29;;;;;;;20.47;9.57;;;;;;;1.23;57.94;99988.16;123785;1102;64892;-80
2021/03/07 01:11:55;;;;;;;16.50;8.37;;;;;;;1.24;58.36;99981.98;123825;1102;64906;-80
2021/03/07 01:14:22;;;;;;;18.97;8.87;;;;;;;1.26;58.21;99987.21;123833;1102;65004;-78
2021/03/07 01:16:48;;;;;;;18.52;9.15;;;;;;;1.26;58.08;99992.48;123469;1102;64928;-78
2021/03/07 01:19:14;;;;;;;16.95;8.90;;;;;;;1.24;57.88;99968.83;123806;1102;64997;-76
2021/03/07 01:21:41;;;;;;;20.27;8.70;;;;;;;1.25;58.21;99975.82;123734;1102;64928;-78
2021/03/07 01:24:08;;;;;;;16.50;9.07;;;;;;;1.26;57.64;99972.29;123785;1102;65058;-78
2021/03/07 01:26:34;;;;;;;17.05;8.95;;;;;;;1.27;58.51;99979.31;123834;1102;64947;-78
2021/03/07 01:29:01;;;;;;;15.97;9.33;;;;;;;1.28;58.51;99964.39;123798;1102;64972;-80
2021/03/07 01:31:27;;;;;;;16.00;9.60;;;;;;;1.29;58.47;99960.86;123787;1102;64953;-78
2021/03/07 01:33:53;;;;;;;20.97;10.90;;;;;;;1.28;58.18;99952.09;123819;1102;65346;-77
2021/03/07 01:36:20;;;;;;;17.33;9.07;;;;;;;1.29;57.56;99950.33;123960;1102;64837;-80
2021/03/07 01:38:46;;;;;;;17.20;9.90;;;;;;;1.28;58.39;99951.23;123893;1102;64928;-79
2021/03/07 01:41:12;;;;;;;22.40;9.60;;;;;;;1.29;58.44;99945.06;123810;1102;65077;-76
2021/03/07 01:43:39;;;;;;;21.57;9.77;;;;;;;1.30;57.86;99945.03;123810;1102;64966;-77
2021/03/07 01:46:05;;;;;;;16.65;10.25;;;;;;;1.31;58.53;99938.86;123858;1102;64913;-78
2021/03/07 01:48:31;;;;;;;17.62;10.30;;;;;;;1.33;58.73;99941.45;123487;1102;64902;-78
2021/03/07 01:50:58;;;;;;;23.10;11.47;;;;;;;1.35;58.67;99940.55;123869;1102;64969;-76
2021/03/07 01:53:24;;;;;;;18.13;9.40;;;;;;;1.37;58.84;99944.91;123735;1102;64924;-78
2021/03/07 01:55:52;;;;;;;17.53;10.73;;;;;;;1.39;58.82;99935.20;123777;1102;64998;-76
2021/03/07 01:58:23;;;;;;;29.90;12.37;;;;;;;1.41;58.52;99928.16;123802;1102;64921;-81
2021/03/07 02:00:50;;;;;;;21.97;10.97;;;;;;;1.41;59.28;99929.03;123772;1102;64995;-80
2021/03/07 02:03:16;;;;;;;20.53;10.00;;;;;;;1.42;59.28;99930.75;123850;1102;64997;-77
2021/03/07 02:05:44;;;;;;;20.30;11.23;;;;;;;1.44;58.90;99928.95;123833;1102;64971;-76
2021/03/07 02:08:11;;;;;;;23.65;10.90;;;;;;;1.43;59.02;99928.98;123499;1102;64972;-78
2021/03/07 02:10:46;;;;;;;22.83;10.80;;;;;;;1.44;59.39;99928.09;123476;1102;64956;-81
2021/03/07 02:13:19;;;;;;;16.07;9.17;;;;;;;1.46;58.55;99921.01;123849;1102;64841;-76
2021/03/07 02:15:50;;;;;;;13.40;8.60;;;;;;;1.47;59.37;99906.98;123826;1102;65046;-78
2021/03/07 02:18:16;;;;;;;13.57;8.50;;;;;;;1.50;58.99;99909.53;123820;1102;65001;-80
2021/03/07 02:20:59;;;;;;;17.77;9.30;;;;;;;1.52;59.00;99913.84;123845;1100;64914;-75
2021/03/07 02:23:30;;;;;;;13.77;7.57;;;;;;;1.53;58.71;99907.70;123538;1102;64909;-77
2021/03/07 02:25:56;;;;;;;11.07;4.67;;;;;;;1.57;59.27;99903.23;123752;1102;64997;-77
2021/03/07 02:28:25;;;;;;;8.73;6.20;;;;;;;1.59;58.61;99902.31;123796;1102;65267;-78
2021/03/07 02:30:52;;;;;;;7.70;5.13;;;;;;;1.61;58.89;99892.60;123798;1102;64975;-77
2021/03/07 02:33:34;;;;;;;8.13;5.10;;;;;;;1.64;59.07;99891.66;123715;1102;65020;-77
2021/03/07 02:36:04;;;;;;;7.63;4.87;;;;;;;1.65;58.96;99885.48;123770;1102;64980;-78
2021/03/07 02:38:35;;;;;;;6.30;4.50;;;;;;;1.67;58.66;99888.11;123846;1102;64940;-80
2021/03/07 02:41:03;;;;;;;6.70;4.80;;;;;;;1.67;58.44;99880.20;123814;1102;65068;-77
2021/03/07 02:43:36;;;;;;;7.20;4.80;;;;;;;1.67;58.91;99880.20;123741;1102;64920;-80
2021/03/07 02:46:04;;;;;;;9.17;4.63;;;;;;;1.67;58.62;99864.41;123841;1102;64888;-77
2021/03/07 02:48:32;;;;;;;7.77;4.63;;;;;;;1.67;58.63;99861.78;123812;1102;64860;-80
2021/03/07 02:51:01;;;;;;;5.75;4.65;;;;;;;1.66;59.21;99855.64;123403;1102;64953;-81
2021/03/07 02:53:29;;;;;;;8.53;5.10;;;;;;;1.64;60.42;99846.89;123770;1102;65106;-81
2021/03/07 02:56:12;;;;;;;7.97;4.47;;;;;;;1.63;59.11;99847.80;123821;1102;64865;-81
2021/03/07 02:58:40;;;;;;;6.00;4.50;;;;;;;1.63;59.19;99837.27;123800;1102;64901;-78
2021/03/07 03:01:10;;;;;;;6.53;4.60;;;;;;;1.63;59.27;99839.91;123433;1102;64905;-80
2021/03/07 03:03:49;;;;;;;9.35;4.60;;;;;;;1.61;59.06;99844.34;123858;1102;64920;-77
2021/03/07 03:06:17;;;;;;;7.00;4.80;;;;;;;1.60;59.58;99840.85;123783;1102;65071;-80
2021/03/07 03:08:52;;;;;;;5.10;4.40;;;;;;;1.61;59.71;99837.31;123804;1102;64928;-78
2021/03/07 03:11:23;;;;;;;7.35;4.80;;;;;;;1.61;59.83;99829.41;123772;1102;64947;-77
2021/03/07 03:13:51;;;;;;;7.70;4.60;;;;;;;1.62;59.20;99832.91;123809;1102;64909;-80
2021/03/07 03:16:23;;;;;;;7.47;5.27;;;;;;;1.60;59.64;99822.42;123446;1103;64892;-76
2021/03/07 03:18:51;;;;;;;9.37;5.30;;;;;;;1.59;59.55;99828.59;123752;1102;65055;-80
2021/03/07 03:21:17;;;;;;;6.20;4.90;;;;;;;1.59;59.47;99820.70;123771;1102;64921;-81
2021/03/07 03:23:47;;;;;;;10.23;6.10;;;;;;;1.57;59.54;99824.25;123797;1102;64930;-77
2021/03/07 03:26:14;;;;;;;9.87;5.90;;;;;;;1.57;59.29;99821.61;123895;1102;64921;-77
2021/03/07 03:28:41;;;;;;;13.70;6.47;;;;;;;1.57;59.45;99816.35;123755;1102;65007;-76
2021/03/07 03:31:07;;;;;;;11.67;6.53;;;;;;;1.56;59.24;99820.75;123782;1102;64991;-80
2021/03/07 03:33:33;;;;;;;8.13;5.50;;;;;;;1.56;60.27;99811.99;123423;1102;65046;-77
2021/03/07 03:36:00;;;;;;;10.18;6.97;;;;;;;1.56;59.72;99806.73;123826;1102;65306;-78
2021/03/07 03:38:40;;;;;;;8.23;5.70;;;;;;;1.55;59.87;99803.23;123839;1102;64915;-79
2021/03/07 03:41:09;;;;;;;8.30;5.43;;;;;;;1.57;59.56;99797.92;123863;1102;65017;-77
2021/03/07 03:43:39;;;;;;;6.93;5.57;;;;;;;1.56;59.34;99802.33;123772;1102;65010;-79
2021/03/07 03:46:06;;;;;;;7.53;5.17;;;;;;;1.56;59.52;99798.83;123488;1102;64912;-77
2021/03/07 03:48:39;;;;;;;9.17;5.80;;;;;;;1.55;60.00;99792.70;123773;1102;64918;-76
2021/03/07 03:51:08;;;;;;;9.30;5.73;;;;;;;1.56;59.22;99793.56;123535;1102;64930;-78
2021/03/07 03:53:36;;;;;;;9.17;5.60;;;;;;;1.57;59.09;99797.92;123837;1102;64969;-80
2021/03/07 03:56:03;;;;;;;7.57;5.27;;;;;;;1.57;59.79;99790.03;123840;1102;64898;-77
2021/03/07 03:58:37;;;;;;;6.77;4.40;;;;;;;1.58;59.76;99787.34;123762;1102;64939;-76
2021/03/07 04:01:05;;;;;;;7.55;4.60;;;;;;;1.59;59.82;99786.48;123742;1102;64869;-77
2021/03/07 04:03:31;;;;;;;5.77;4.03;;;;;;;1.59;59.95;99775.95;123851;1102;64876;-78
2021/03/07 04:05:58;;;;;;;6.23;4.20;;;;;;;1.61;59.70;99782.03;123487;1102;64924;-77
2021/03/07 04:08:25;;;;;;;5.33;3.70;;;;;;;1.63;60.03;99781.98;123792;1102;64917;-79
2021/03/07 04:10:52;;;;;;;7.53;4.63;;;;;;;1.64;59.98;99783.70;123743;1102;65291;-77
2021/03/07 04:13:44;;;;;;;8.37;4.63;;;;;;;1.63;60.03;99777.58;123278;1102;65416;-76
2021/03/07 04:16:13;;;;;;;5.87;3.77;;;;;;;1.64;59.80;99783.70;123674;1102;64902;-80
2021/03/07 04:18:40;;;;;;;5.60;4.00;;;;;;;1.63;60.33;99777.58;123748;1101;65372;-79
2021/03/07 04:21:07;;;;;;;6.13;3.87;;;;;;;1.64;59.55;99778.44;123846;1102;64886;-78
2021/03/07 04:23:34;;;;;;;6.50;3.73;;;;;;;1.63;59.69;99777.58;123834;1102;65011;-78
2021/03/07 04:26:02;;;;;;;9.23;4.23;;;;;;;1.65;60.01;99772.27;123815;1102;64934;-77
2021/03/07 04:28:29;;;;;;;6.10;3.40;;;;;;;1.66;60.50;99760.86;123833;1102;64946;-78
2021/03/07 04:30:55;;;;;;;3.63;3.33;;;;;;;1.67;59.34;99764.36;123803;1102;64994;-78
2021/03/07 04:33:22;;;;;;;5.87;3.77;;;;;;;1.68;60.07;99759.05;123774;1102;64969;-78
2021/03/07 04:35:49;;;;;;;4.97;3.80;;;;;;;1.69;59.96;99760.77;123856;1102;64838;-81
2021/03/07 04:38:15;;;;;;;6.67;4.20;;;;;;;1.71;59.81;99758.95;123839;1102;64917;-75
2021/03/07 04:40:42;;;;;;;3.95;3.00;;;;;;;1.73;59.77;99756.31;123774;1102;64853;-78
2021/03/07 04:43:09;;;;;;;11.17;4.70;;;;;;;1.74;59.80;99758.03;123847;1102;64911;-80
2021/03/07 04:45:35;;;;;;;4.70;3.67;;;;;;;1.74;59.55;99756.26;123795;1102;64995;-77
2021/03/07 04:48:03;;;;;;;7.10;4.47;;;;;;;1.73;59.45;99751.91;123803;1102;64906;-78
2021/03/07 04:50:29;;;;;;;5.03;3.50;;;;;;;1.73;59.52;99754.53;123818;1102;64998;-80
2021/03/07 04:52:56;;;;;;;5.37;3.63;;;;;;;1.72;60.09;99760.71;123828;1102;64925;-79
2021/03/07 04:55:22;;;;;;;6.00;4.23;;;;;;;1.74;60.31;99756.26;123834;1102;65010;-78
2021/03/07 04:57:49;;;;;;;5.47;4.30;;;;;;;1.74;59.20;99752.77;123830;1102;65013;-76
2021/03/07 05:00:17;;;;;;;5.85;4.00;;;;;;;1.75;59.59;99743.95;123815;1102;64898;-77
2021/03/07 05:02:44;;;;;;;7.77;4.10;;;;;;;1.75;59.44;99739.55;123829;1102;65055;-79
2021/03/07 05:05:10;;;;;;;5.80;4.00;;;;;;;1.76;59.41;99750.95;123928;1102;64889;-81
2021/03/07 05:07:37;;;;;;;4.50;3.17;;;;;;;1.77;59.55;99748.27;123803;1102;64908;-77
2021/03/07 05:10:06;;;;;;;4.30;3.27;;;;;;;1.78;59.65;99744.76;123816;1102;65010;-78
2021/03/07 05:12:32;;;;;;;6.50;3.70;;;;;;;1.81;60.45;99741.17;123539;1102;64915;-80
2021/03/07 05:14:59;;;;;;;3.90;3.50;;;;;;;1.83;59.96;99734.95;123859;1102;64908;-76
2021/03/07 05:17:27;;;;;;;6.37;4.43;;;;;;;1.84;59.88;99730.54;123456;1103;64894;-78
2021/03/07 05:19:53;;;;;;;3.57;3.13;;;;;;;1.83;59.98;99723.55;123851;1102;64911;-78
2021/03/07 05:22:20;;;;;;;5.70;3.20;;;;;;;1.85;59.27;99724.39;123830;1102;64937;-81
2021/03/07 05:24:46;;;;;;;3.67;3.07;;;;;;;1.85;59.38;99714.72;123776;1102;64982;-77
2021/03/07 05:27:13;;;;;;;4.80;3.85;;;;;;;1.89;59.42;99718.98;123788;1102;64949;-77
2021/03/07 05:29:39;;;;;;;6.47;4.45;;;;;;;1.91;59.45;99713.70;123921;1100;64966;-78
2021/03/07 05:32:07;;;;;;;9.73;5.37;;;;;;;1.89;59.20;99713.72;123829;1102;64921;-76
2021/03/07 05:34:33;;;;;;;12.20;5.27;;;;;;;1.89;59.33;99716.35;123788;1102;64912;-76
2021/03/07 05:36:59;;;;;;;10.93;6.23;;;;;;;1.86;59.37;99705.91;123804;1102;64950;-80
2021/03/07 05:39:26;;;;;;;16.60;6.63;;;;;;;1.82;59.31;99706.02;123816;1100;65029;-78
2021/03/07 05:41:53;;;;;;;12.13;7.30;;;;;;;1.77;59.84;99711.40;123809;1102;65292;-77
2021/03/07 05:44:21;;;;;;;10.03;6.50;;;;;;;1.72;59.90;99704.52;123887;1102;64940;-77
2021/03/07 05:46:48;;;;;;;12.23;6.90;;;;;;;1.65;59.86;99695.91;123832;1102;64886;-78
2021/03/07 05:49:14;;;;;;;10.13;6.07;;;;;;;1.62;59.64;99703.91;123855;1101;64889;-77
2021/03/07 05:51:43;;;;;;;11.37;6.27;;;;;;;1.58;59.67;99699.61;123420;1102;64899;-75
2021/03/07 05:54:11;;;;;;;10.07;6.43;;;;;;;1.56;59.78;99704.92;123364;1102;64860;-82
2021/03/07 05:56:39;;;;;;;12.70;6.93;;;;;;;1.55;59.72;99697.07;123855;1102;65340;-76
2021/03/07 05:59:06;;;;;;;13.43;7.13;;;;;;;1.54;60.00;99696.21;123832;1102;65100;-78
2021/03/07 06:01:35;;;;;;;15.97;8.20;;;;;;;1.53;59.68;99699.75;123822;1102;64998;-77
2021/03/07 06:04:03;;;;;;;11.03;7.10;;;;;;;1.53;59.71;99699.75;123815;1102;64998;-78
2021/03/07 06:06:31;;;;;;;15.27;8.37;;;;;;;1.52;59.53;99698.00;123894;1102;64943;-80
2021/03/07 06:09:30;;;;;;;26.27;11.70;;;;;;;1.54;59.72;99697.98;123844;1101;64909;-80
2021/03/07 06:11:58;;;;;;;21.13;8.70;;;;;;;1.55;59.95;99702.34;123814;1102;64979;-78
2021/03/07 06:14:30;;;;;;;14.50;7.57;;;;;;;1.56;59.47;99701.43;123870;1102;64838;-77
2021/03/07 06:17:07;;;;;;;18.47;8.33;;;;;;;1.56;59.49;99696.16;123821;1101;65001;-78
2021/03/07 06:19:53;;;;;;;14.50;8.30;;;;;;;1.57;60.08;99705.78;123793;1102;64889;-78
2021/03/07 06:22:19;;;;;;;;;;;;;;;1.60;60.07;99700.46;123823;1101;64897;-80
2021/03/07 06:24:46;;;;;;;28.57;11.97;;;;;;;1.61;59.53;99695.15;123826;1102;64912;-76
2021/03/07 06:27:17;;;;;;;27.57;11.37;;;;;;;1.65;60.40;99700.32;123837;1102;64894;-80
2021/03/07 06:30:13;;;;;;;23.90;10.55;;;;;;;1.68;60.09;99685.33;123477;1102;65048;-77
2021/03/07 06:32:42;;;;;;;16.27;8.93;;;;;;;1.69;59.68;99694.94;123840;1102;64937;-80
2021/03/07 06:35:11;;;;;;;14.00;8.40;;;;;;;1.72;59.74;99689.62;123557;1102;64954;-78
2021/03/07 06:37:58;;;;;;;15.93;8.20;;;;;;;1.74;59.77;99684.30;123801;1102;64883;-78
2021/03/07 06:40:28;;;;;;;12.77;7.90;;;;;;;1.76;60.08;99683.34;124141;1102;64857;-77
2021/03/07 06:42:55;;;;;;;15.23;8.00;;;;;;;1.77;59.49;99682.44;123895;1102;64960;-78
2021/03/07 06:45:22;;;;;;;15.50;8.67;;;;;;;1.77;60.23;99679.80;123812;1102;64832;-81
2021/03/07 06:47:57;;;;;;;15.57;8.47;;;;;;;1.77;60.23;99677.17;123656;1102;64895;-76
2021/03/07 06:50:25;;;;;;;15.05;8.45;;;;;;;1.79;59.97;99675.38;123827;1102;65042;-77
2021/03/07 06:52:54;;;;;;;16.77;8.90;;;;;;;1.83;60.17;99674.38;123807;1101;65027;-77
2021/03/07 06:55:24;;;;;;;15.27;8.10;;;;;;;1.88;59.85;99674.26;123901;1102;64921;-81
2021/03/07 06:57:51;;;;;;;16.47;9.47;;;;;;;1.88;60.07;99667.22;123540;1102;65027;-78
2021/03/07 07:00:34;;;;;;;16.07;8.07;;;;;;;1.93;59.82;99671.51;123779;1102;64997;-80
2021/03/07 07:03:09;;;;;;;13.90;8.30;;;;;;;1.99;59.55;99669.57;123504;1102;64901;-80
2021/03/07 07:05:46;;;;;;;;;;;;;;;2.04;60.12;99666.82;123884;1102;64988;-78
2021/03/07 07:08:14;;;;;;;;;;;;;;;2.06;59.47;99660.59;123822;1102;64978;-76
2021/03/07 07:10:53;;;;;;;18.65;10.50;;;;;;;2.05;59.47;99660.64;123835;1102;65308;-79
2021/03/07 07:13:19;;;;;;;21.53;9.33;;;;;;;2.09;60.18;99654.35;123860;1102;65001;-82
2021/03/07 07:15:59;;;;;;;22.77;11.50;;;;;;;2.15;59.74;99651.55;123426;1105;64886;-77
2021/03/07 07:18:27;;;;;;;24.93;12.47;;;;;;;2.21;60.08;99654.02;124060;1102;64915;-78
2021/03/07 07:20:55;;;;;;;22.13;11.57;;;;;;;2.26;59.44;99652.11;123842;1102;64971;-77
2021/03/07 07:23:24;;;;;;;29.00;12.70;;;;;;;2.29;60.00;99648.52;123753;1102;65353;-78
2021/03/07 07:25:52;;;;;;;27.37;13.10;;;;;;;2.35;59.57;99643.06;123568;1102;65054;-80
2021/03/07 07:28:18;;;;;;;19.53;9.80;;;;;;;2.39;59.83;99645.58;123772;1102;65046;-77
2021/03/07 07:30:54;;;;;;;18.63;9.67;;;;;;;2.42;59.81;99648.14;123580;1102;65012;-80
2021/03/07 07:33:32;;;;;;;20.27;10.30;;;;;;;2.48;59.42;99643.56;124027;1102;64899;-78
2021/03/07 07:36:00;;;;;;;21.87;11.43;;;;;;;2.58;59.47;99643.25;123804;1101;64889;-79
2021/03/07 07:38:29;;;;;;;26.47;11.50;;;;;;;2.65;59.64;99638.66;123587;1102;65017;-80
2021/03/07 07:40:55;;;;;;;16.87;9.50;;;;;;;2.73;59.59;99628.73;124150;1102;65033;-80
2021/03/07 07:43:22;;;;;;;18.05;9.05;;;;;;;2.74;59.51;99633.11;123977;1102;64940;-78
2021/03/07 07:46:09;;;;;;;21.63;10.33;;;;;;;2.78;60.11;99637.36;123949;1102;64898;-77
2021/03/07 07:48:35;;;;;;;12.35;7.80;;;;;;;2.86;59.76;99638.01;123829;1102;64901;-78
2021/03/07 07:51:38;;;;;;;11.90;6.37;;;;;;;2.91;59.70;99625.52;123913;1102;65056;-82
2021/03/07 07:54:07;;;;;;;14.77;8.00;;;;;;;3.03;59.15;99624.27;124038;1102;64949;-79
2021/03/07 07:56:41;;;;;;;11.80;6.70;;;;;;;3.14;59.42;99621.28;123836;1102;65107;-79
2021/03/07 07:59:13;;;;;;;10.77;6.67;;;;;;;3.23;58.87;99621.83;123458;1102;64944;-79
2021/03/07 08:01:50;;;;;;;10.23;7.53;;;;;;;3.33;58.00;99616.25;123636;1102;64927;-78
2021/03/07 08:04:29;;;;;;;10.50;6.30;;;;;;;3.38;58.42;99614.33;123756;1102;64988;-78
2021/03/07 08:06:56;;;;;;;10.03;6.13;;;;;;;3.45;58.73;99621.13;123766;1102;65004;-79
2021/03/07 08:09:35;;;;;;;9.07;6.20;;;;;;;3.51;58.76;99608.57;123802;1102;64918;-80
2021/03/07 08:12:39;;;;;;;9.00;6.00;;;;;;;3.57;58.01;99609.28;123836;1102;65344;-78
2021/03/07 08:15:24;;;;;;;10.87;6.13;;;;;;;3.56;58.83;99602.25;123427;1101;64898;-80
2021/03/07 08:17:53;;;;;;;8.68;5.92;;;;;;;3.64;58.41;99597.58;123777;1101;64963;-82
2021/03/07 08:20:38;;;;;;;7.53;5.83;;;;;;;3.65;57.28;99586.95;123820;1102;65004;-78
2021/03/07 08:23:10;;;;;;;8.93;5.80;;;;;;;3.66;58.50;99593.95;123430;1102;64845;-78
2021/03/07 08:25:46;;;;;;;9.07;5.67;;;;;;;3.74;58.87;99588.40;123467;1103;64989;-79
2021/03/07 08:28:27;;;;;;;9.67;5.93;;;;;;;3.83;58.04;99581.94;123848;1102;64915;-83
2021/03/07 08:31:04;;;;;;;8.40;6.60;;;;;;;3.90;58.08;99580.80;123788;1102;64921;-79
2021/03/07 08:33:35;;;;;;;8.30;5.40;;;;;;;3.96;57.70;99584.08;123431;1102;65087;-80
2021/03/07 08:36:12;;;;;;;8.03;5.50;;;;;;;4.01;58.03;99584.77;123494;1102;64947;-83
2021/03/07 08:38:56;;;;;;;9.25;5.90;;;;;;;4.14;58.33;99594.89;123779;1102;64914;-80
2021/03/07 08:41:24;;;;;;;7.70;5.90;;;;;;;4.25;58.17;99590.04;123839;1102;64895;-77
2021/03/07 08:43:52;;;;;;;10.73;5.90;;;;;;;4.29;57.56;99583.73;123497;1102;64991;-81
2021/03/07 08:46:25;;;;;;;6.57;5.73;;;;;;;4.27;57.03;99581.15;123348;1102;65074;-81
2021/03/07 08:49:06;;;;;;;7.30;5.70;;;;;;;4.35;57.51;99570.27;123866;1102;65081;-78
2021/03/07 08:51:37;;;;;;;8.73;5.83;;;;;;;4.38;57.03;99582.50;123451;1105;65009;-78
2021/03/07 08:54:09;;;;;;;7.27;5.40;;;;;;;4.43;57.75;99570.83;123469;1102;64962;-76
2021/03/07 08:56:38;;;;;;;6.17;4.93;;;;;;;4.52;57.21;99567.84;123881;1102;64895;-79
2021/03/07 08:59:05;;;;;;;8.63;5.90;;;;;;;4.60;57.57;99559.59;123855;1102;65513;-77
2021/03/07 09:01:33;;;;;;;7.70;5.50;;;;;;;4.61;56.88;99567.47;123611;1104;65367;-78
2021/03/07 09:04:04;;;;;;;7.73;5.60;;;;;;;4.61;56.84;99562.17;123470;1102;65009;-78
2021/03/07 09:06:45;;;;;;;11.13;4.93;;;;;;;4.55;55.77;99548.34;123749;1102;64847;-78
2021/03/07 09:09:15;;;;;;;9.33;4.73;;;;;;;4.43;55.80;99557.61;123837;1102;64978;-77
2021/03/07 09:12:00;;;;;;;5.90;4.93;;;;;;;4.52;56.62;99553.77;123859;1102;65498;-84
2021/03/07 09:14:35;;;;;;;5.33;4.72;;;;;;;4.57;56.81;99557.06;123863;1102;65265;-78
2021/03/07 09:17:04;;;;;;;8.25;5.35;;;;;;;4.68;55.88;99554.00;123864;1102;64927;-78
2021/03/07 09:19:37;;;;;;;8.90;5.03;;;;;;;4.65;55.17;99549.70;123830;1102;64902;-78
2021/03/07 09:22:17;;;;;;;7.43;4.73;;;;;;;4.64;56.88;99560.32;123734;1102;64927;-78
2021/03/07 09:24:53;;;;;;;5.57;4.83;;;;;;;4.80;56.12;99558.80;123759;1102;65441;-81
2021/03/07 09:27:20;;;;;;;6.17;4.53;;;;;;;4.89;56.51;99547.83;123605;1102;64908;-78
2021/03/07 09:29:54;;;;;;;7.80;5.15;;;;;;;5.06;56.34;99541.84;123434;1105;65386;-79
2021/03/07 09:32:26;;;;;;;6.63;4.77;;;;;;;5.20;55.21;99534.17;123762;1102;64856;-81
2021/03/07 09:34:53;;;;;;;8.03;5.33;;;;;;;5.24;55.96;99548.16;123800;1102;64917;-81
2021/03/07 09:37:20;;;;;;;8.35;5.15;;;;;;;5.29;56.64;99538.23;123524;1105;65013;-79
2021/03/07 09:39:47;;;;;;;8.30;5.13;;;;;;;5.35;55.95;99545.92;123835;1102;65386;-78
2021/03/07 09:42:14;;;;;;;6.13;5.13;;;;;;;5.22;55.61;99536.78;123943;1102;64879;-78
2021/03/07 09:44:41;;;;;;;7.75;5.75;;;;;;;5.22;56.00;99532.34;123823;1102;64883;-83
2021/03/07 09:47:15;;;;;;;8.90;5.40;;;;;;;5.33;55.93;99535.36;124124;1102;64929;-78
2021/03/07 09:49:44;;;;;;;6.43;5.20;;;;;;;5.54;55.71;99532.73;123630;1102;65023;-78
2021/03/07 09:52:12;;;;;;;6.83;4.73;;;;;;;5.65;56.45;99530.45;123846;1102;64914;-82
2021/03/07 09:54:52;;;;;;;8.30;5.63;;;;;;;5.72;54.98;99528.38;123768;1102;64940;-77
2021/03/07 09:57:20;;;;;;;7.40;5.57;;;;;;;5.65;54.34;99526.00;124728;1102;64891;-76
2021/03/07 09:59:49;;;;;;;7.63;5.60;;;;;;;5.57;54.53;99519.34;123876;1102;64895;-79
2021/03/07 10:02:17;;;;;;;9.23;5.27;;;;;;;5.70;55.56;99531.97;127092;1102;62872;-75
2021/03/07 10:04:50;;;;;;;8.53;5.33;;;;;;;5.89;54.84;99521.41;127054;1102;62801;-77
2021/03/07 10:07:20;;;;;;;8.57;5.03;;;;;;;5.91;55.11;99524.86;127092;1102;62592;-76
2021/03/07 10:10:16;;;;;;;8.07;6.30;;;;;;;5.98;54.55;99516.63;124576;1102;64975;-78
2021/03/07 10:12:54;;;;;;;9.63;5.77;;;;;;;6.11;56.48;99526.63;123798;1102;64930;-78
2021/03/07 10:15:35;;;;;;;9.23;6.27;;;;;;;6.37;55.71;99514.80;123925;1102;65083;-78
2021/03/07 10:18:12;;;;;;;9.27;6.20;;;;;;;6.36;55.05;99506.88;124137;1102;64879;-77
2021/03/07 10:20:42;;;;;;;7.10;5.47;;;;;;;6.39;54.55;99509.41;123952;1102;64886;-79
2021/03/07 10:23:10;;;;;;;7.47;5.23;;;;;;;6.43;55.02;99509.19;123818;1102;64984;-78
2021/03/07 10:25:39;;;;;;;9.60;5.63;;;;;;;6.59;54.26;99490.72;123728;1102;64899;-78
2021/03/07 10:28:12;;;;;;;11.23;8.63;;;;;;;6.66;54.66;99499.24;123872;1102;64841;-79
2021/03/07 10:30:41;;;;;;;9.33;7.50;;;;;;;6.99;54.91;99486.94;123925;1102;64901;-80
2021/03/07 10:33:17;;;;;;;15.30;7.97;;;;;;;7.36;54.67;99493.03;123341;1102;65439;-79
2021/03/07 10:36:00;;;;;;;8.43;6.67;;;;;;;7.56;52.33;99484.86;123701;1102;64965;-76
2021/03/07 10:38:28;;;;;;;9.65;6.75;;;;;;;7.44;52.54;99490.82;123648;1102;65306;-79
2021/03/07 10:40:58;;;;;;;13.33;7.97;;;;;;;7.34;53.39;99480.77;123925;1102;64918;-77
2021/03/07 10:43:25;;;;;;;12.50;8.40;;;;;;;7.23;52.44;99498.11;123462;1102;64972;-78
2021/03/07 10:45:52;;;;;;;12.77;8.23;;;;;;;7.28;53.43;99482.80;123452;1102;64943;-80
2021/03/07 10:48:18;;;;;;;10.05;6.95;;;;;;;7.55;54.34;99482.30;124099;1102;64936;-78
2021/03/07 10:50:47;;;;;;;6.90;6.20;;;;;;;7.90;54.16;99476.91;123876;1102;65039;-78
2021/03/07 10:53:17;;;;;;;9.60;6.90;;;;;;;8.04;53.06;99484.98;123647;1103;65078;-79
2021/03/07 10:55:51;;;;;;;9.47;6.57;;;;;;;8.05;53.11;99479.56;123817;1102;64892;-77
2021/03/07 10:58:17;;;;;;;9.27;6.87;;;;;;;8.00;52.49;99478.09;124133;1102;64905;-77
2021/03/07 11:00:44;;;;;;;11.27;7.77;;;;;;;7.78;53.85;99479.27;123798;1102;64901;-77
2021/03/07 11:03:11;;;;;;;8.70;6.93;;;;;;;7.97;53.63;99473.82;123529;1102;65001;-77
2021/03/07 11:05:38;;;;;;;11.47;7.63;;;;;;;8.18;53.28;99471.77;124535;1102;64920;-77
2021/03/07 11:08:05;;;;;;;11.23;8.17;;;;;;;8.11;52.98;99468.59;125163;1102;64863;-77
2021/03/07 11:10:32;;;;;;;14.10;8.60;;;;;;;7.92;53.79;99465.23;123727;1102;65104;-80
2021/03/07 11:12:59;;;;;;;10.03;7.33;;;;;;;7.81;51.93;99463.14;123472;1105;64911;-79
2021/03/07 11:15:26;;;;;;;12.63;8.60;;;;;;;7.74;53.03;99456.45;124352;1102;64908;-77
2021/03/07 11:17:53;;;;;;;19.77;11.60;;;;;;;7.68;53.71;99448.80;125176;1102;64782;-78
2021/03/07 11:20:22;;;;;;;22.97;13.27;;;;;;;7.95;52.93;99458.87;123692;1104;64913;-78
2021/03/07 11:22:49;;;;;;;19.07;11.93;;;;;;;7.89;53.15;99462.75;123758;1102;65006;-78
2021/03/07 11:25:16;;;;;;;13.23;7.93;;;;;;;7.94;53.00;99454.50;123781;1105;64853;-78
2021/03/07 11:27:49;;;;;;;23.93;13.10;;;;;;;7.68;52.63;99451.45;124039;1102;65081;-77
2021/03/07 11:30:17;;;;;;;19.23;10.10;;;;;;;7.68;53.51;99447.94;124002;1102;64920;-77
2021/03/07 11:32:43;;;;;;;12.03;8.07;;;;;;;7.83;51.30;99440.01;123598;1102;64978;-81
2021/03/07 11:35:11;;;;;;;10.83;8.13;;;;;;;7.54;52.53;99446.89;123589;1102;64898;-80
2021/03/07 11:37:37;;;;;;;9.93;7.07;;;;;;;7.31;51.59;99437.47;123736;1102;64882;-78
2021/03/07 11:40:05;;;;;;;10.07;7.57;;;;;;;7.60;52.66;99435.08;124093;1101;65013;-78
2021/03/07 11:42:31;;;;;;;8.20;6.80;;;;;;;7.98;52.57;99440.10;123874;1102;64895;-77